Latest Weather Observations for West Roebuck

IDW60801

Issued at 3:05 am WST Thursday 24 April 2014 (issued every 30 minutes, with the page automatically refreshed every 10 minutes)

About weather observations | Map of weather stations | Latest weather observations for WA | Other Formats
Station Details ID: 003096 Name: WEST ROEBUCK Lat: -17.90 Lon: 122.31 Height: 32.0 m
Data from the previous 72 hours. | See also: Recent months for locations in Western Australia
Date/Time
WST
Temp
°C
App
Temp
°C
Dew
Point
Rel
Hum
%
Delta-T
°C
Wind Press
QNH
hPa
Press
MSL
hPa
Rain
since 9 am
mm
Dir
 
Spd
km/h
Gust
km/h
Spd
kts
Gust
kts
24/03:00am 19.9 - - - - N 6 7 3 4 - - 0.0
24/02:30am 21.0 - - - - N 0 0 0 0 - - 0.0
24/02:00am 21.6 - - - - CALM 0 0 0 0 - - 0.0
24/01:30am 21.8 - - - - N 7 9 4 5 - - 0.0
24/01:00am 20.7 - - - - CALM 0 0 0 0 - - 0.0
24/12:30am 20.6 - - - - CALM 0 0 0 0 - - 0.0
24/12:00am 22.1 - - - - N 0 0 0 0 - - 0.0
 
Date/Time
WST
Temp
°C
App
Temp
°C
Dew
Point
Rel
Hum
%
Delta-T
°C
Wind Press
QNH
hPa
Press
MSL
hPa
Rain
since 9 am
mm
Dir
 
Spd
km/h
Gust
km/h
Spd
kts
Gust
kts
23/11:30pm 21.5 - - - - CALM 0 0 0 0 - - 0.0
23/11:00pm 21.9 - - - - CALM 0 0 0 0 - - 0.0
23/10:30pm 21.6 - - - - N 9 11 5 6 - - 0.0
23/10:00pm 22.0 - - - - N 7 9 4 5 - - 0.0
23/09:30pm 22.7 - - - - NNE 9 13 5 7 - - 0.0
23/09:00pm 23.1 - - - - W 2 9 1 5 - - 0.0
23/08:30pm 22.8 - - - - SW 9 11 5 6 - - 0.0
23/08:00pm 23.5 - - - - SW 7 9 4 5 - - 0.0
23/07:30pm 23.4 - - - - WSW 7 9 4 5 - - 0.0
23/07:00pm 24.4 - - - - CALM 0 6 0 3 - - 0.0
23/06:30pm 25.4 - - - - W 7 9 4 5 - - 0.0
23/06:00pm 26.3 - - - - W 11 11 6 6 - - 0.0
23/05:30pm 28.8 - - - - W 9 11 5 6 - - 0.0
23/05:00pm 31.5 - - - - W 9 11 5 6 - - 0.0
23/04:30pm 33.3 - - - - WSW 11 15 6 8 - - 0.0
23/04:00pm 34.6 - - - - SW 11 15 6 8 - - 0.0
23/03:30pm 36.1 - - - - S 9 17 5 9 - - 0.0
23/03:00pm 36.7 - - - - ENE 11 17 6 9 - - 0.0
23/02:30pm 36.9 - - - - NNE 11 17 6 9 - - 0.0
23/02:00pm 36.7 - - - - NE 9 19 5 10 - - 0.0
23/01:30pm 36.4 - - - - ENE 15 22 8 12 - - 0.0
23/01:00pm 36.1 - - - - E 11 20 6 11 - - 0.0
23/12:30pm 36.2 - - - - E 13 19 7 10 - - 0.0
23/12:00pm 35.8 - - - - E 13 20 7 11 - - 0.0
23/11:30am 35.0 - - - - ESE 13 19 7 10 - - 0.0
23/11:00am 34.2 - - - - E 11 17 6 9 - - 0.0
23/10:30am 33.2 - - - - ESE 13 19 7 10 - - 0.0
23/10:00am 32.3 - - - - E 15 20 8 11 - - 0.0
23/09:30am 30.9 - - - - E 13 17 7 9 - - 0.0
23/09:00am 29.6 - - - - E 13 20 7 11 - - 0.0
23/08:30am 28.1 - - - - E 13 19 7 10 - - 0.0
23/08:00am 26.0 - - - - E 9 15 5 8 - - 0.0
23/07:30am 23.2 - - - - E 7 9 4 5 - - 0.0
23/07:00am 20.9 - - - - ESE 7 9 4 5 - - 0.0
23/06:30am 19.4 - - - - WSW 2 9 1 5 - - 0.0
23/06:00am 19.7 - - - - W 0 0 0 0 - - 0.0
23/05:30am 19.4 - - - - CALM 0 0 0 0 - - 0.0
23/05:00am 19.7 - - - - CALM 0 0 0 0 - - 0.0
23/04:30am 19.7 - - - - W 6 6 3 3 - - 0.0
23/04:00am 20.1 - - - - WSW 6 7 3 4 - - 0.0
23/03:30am 19.4 - - - - W 6 7 3 4 - - 0.0
23/03:00am 20.6 - - - - CALM 0 6 0 3 - - 0.0
23/02:30am 21.0 - - - - WNW 7 9 4 5 - - 0.0
23/02:00am 20.9 - - - - NNW 7 9 4 5 - - 0.0
23/01:30am 21.2 - - - - N 9 11 5 6 - - 0.0
23/01:00am 20.7 - - - - NNW 11 13 6 7 - - 0.0
23/12:30am 21.1 - - - - NW 9 9 5 5 - - 0.0
23/12:00am 21.4 - - - - NNW 9 11 5 6 - - 0.0
 
Date/Time
WST
Temp
°C
App
Temp
°C
Dew
Point
Rel
Hum
%
Delta-T
°C
Wind Press
QNH
hPa
Press
MSL
hPa
Rain
since 9 am
mm
Dir
 
Spd
km/h
Gust
km/h
Spd
kts
Gust
kts
22/11:30pm 21.4 - - - - N 11 13 6 7 - - 0.0
22/11:00pm 21.3 - - - - N 11 11 6 6 - - 0.0
22/10:30pm 21.6 - - - - N 7 11 4 6 - - 0.0
22/10:00pm 22.4 - - - - CALM 0 0 0 0 - - 0.0
22/09:30pm 23.0 - - - - SSE 2 6 1 3 - - 0.0
22/09:00pm 24.6 - - - - S 9 9 5 5 - - 0.0
22/08:30pm 24.8 - - - - SSW 9 11 5 6 - - 0.0
22/08:00pm 25.2 - - - - SSW 9 11 5 6 - - 0.0
22/07:30pm 25.5 - - - - SSW 11 13 6 7 - - 0.0
22/07:00pm 25.3 - - - - SSW 11 15 6 8 - - 0.0
22/06:30pm 25.7 - - - - SSW 11 13 6 7 - - 0.0
22/06:00pm 26.7 - - - - SW 11 13 6 7 - - 0.0
22/05:30pm 28.3 - - - - SW 11 13 6 7 - - 0.0
22/05:00pm 30.4 - - - - WSW 13 17 7 9 - - 0.0
22/04:30pm 31.8 - - - - WSW 15 19 8 10 - - 0.0
22/04:00pm 33.3 - - - - W 13 17 7 9 - - 0.0
22/03:30pm 34.3 - - - - WSW 15 19 8 10 - - 0.0
22/03:00pm 35.2 - - - - SW 13 20 7 11 - - 0.0
22/02:30pm 36.0 - - - - SW 11 19 6 10 - - 0.0
22/02:00pm 35.9 - - - - S 11 19 6 10 - - 0.0
22/01:30pm 35.8 - - - - S 11 19 6 10 - - 0.0
22/01:00pm 35.8 - - - - SE 11 19 6 10 - - 0.0
22/12:30pm 34.9 - - - - SSE 11 17 6 9 - - 0.0
22/12:00pm 34.6 - - - - S 11 20 6 11 - - 0.0
22/11:30am 33.7 - - - - S 15 20 8 11 - - 0.0
22/11:00am 33.1 - - - - SSE 15 20 8 11 - - 0.0
22/10:30am 32.6 - - - - SSE 15 22 8 12 - - 0.0
22/10:00am 31.7 - - - - S 13 17 7 9 - - 0.0
22/09:30am 30.7 - - - - S 15 20 8 11 - - 0.0
22/09:00am 29.8 - - - - S 15 24 8 13 - - 0.0
22/08:30am 28.1 - - - - S 11 17 6 9 - - 0.0
22/08:00am 25.8 - - - - SSE 9 13 5 7 - - 0.0
22/07:30am 23.7 - - - - SSE 6 9 3 5 - - 0.0
22/07:00am 21.2 - - - - ESE 7 9 4 5 - - 0.0
22/06:30am 20.0 - - - - E 9 13 5 7 - - 0.0
22/06:00am 22.0 - - - - SW 2 7 1 4 - - 0.0
22/05:30am 22.4 - - - - WSW 6 7 3 4 - - 0.0
22/05:00am 21.8 - - - - NW 6 7 3 4 - - 0.0
22/04:30am 21.3 - - - - NNW 9 9 5 5 - - 0.0
22/04:00am 21.3 - - - - NNW 9 11 5 6 - - 0.0
22/03:30am 21.5 - - - - N 9 11 5 6 - - 0.0
22/03:00am 22.0 - - - - NNW 9 11 5 6 - - 0.0
22/02:30am 22.5 - - - - NNW 9 11 5 6 - - 0.0
22/02:00am 22.7 - - - - NNW 9 11 5 6 - - 0.0
22/01:30am 22.6 - - - - NNW 9 11 5 6 - - 0.0
22/01:00am 22.7 - - - - NNW 9 11 5 6 - - 0.0
22/12:30am 22.9 - - - - NNW 7 9 4 5 - - 0.0
22/12:00am 23.4 - - - - N 9 9 5 5 - - 0.0
 
Date/Time
WST
Temp
°C
App
Temp
°C
Dew
Point
Rel
Hum
%
Delta-T
°C
Wind Press
QNH
hPa
Press
MSL
hPa
Rain
since 9 am
mm
Dir
 
Spd
km/h
Gust
km/h
Spd
kts
Gust
kts
21/11:30pm 23.5 - - - - N 9 9 5 5 - - 0.0
21/11:00pm 23.3 - - - - N 9 11 5 6 - - 0.0
21/10:30pm 23.3 - - - - N 6 9 3 5 - - 0.0
21/10:00pm 23.5 - - - - N 9 11 5 6 - - 0.0
21/09:30pm 23.6 - - - - NW 9 11 5 6 - - 0.0
21/09:00pm 23.7 - - - - NW 7 9 4 5 - - 0.0
21/08:30pm 24.3 - - - - WNW 9 9 5 5 - - 0.0
21/08:00pm 24.4 - - - - WNW 9 9 5 5 - - 0.0
21/07:30pm 24.8 - - - - NW 9 11 5 6 - - 0.0
21/07:00pm 25.4 - - - - NNW 9 9 5 5 - - 0.0
21/06:30pm 25.9 - - - - NW 9 13 5 7 - - 0.0
21/06:00pm 26.9 - - - - WNW 9 13 5 7 - - 0.0
21/05:30pm 28.5 - - - - NW 11 17 6 9 - - 0.0
21/05:00pm 30.2 - - - - WNW 15 20 8 11 - - 0.0
21/04:30pm 31.7 - - - - W 15 20 8 11 - - 0.0
21/04:00pm 32.6 - - - - W 17 28 9 15 - - 0.0
21/03:30pm 34.2 - - - - W 15 22 8 12 - - 0.0
21/03:00pm 34.3 - - - - WSW 17 20 9 11 - - 0.0
21/02:30pm 35.0 - - - - SW 9 17 5 9 - - 0.0
21/02:00pm 36.0 - - - - SW 7 11 4 6 - - 0.0
21/01:30pm 36.0 - - - - ENE 7 17 4 9 - - 0.0
21/01:00pm 35.9 - - - - NE 7 13 4 7 - - 0.0
21/12:30pm 35.5 - - - - NE 7 13 4 7 - - 0.0
21/12:00pm 35.2 - - - - ENE 11 15 6 8 - - 0.0
21/11:30am 34.3 - - - - NE 9 15 5 8 - - 0.0
21/11:00am 34.0 - - - - ENE 11 17 6 9 - - 0.0
21/10:30am 32.7 - - - - SSE 9 13 5 7 - - 0.0
21/10:00am 31.6 - - - - SE 9 13 5 7 - - 0.0
21/09:30am 29.9 - - - - SE 9 15 5 8 - - 0.0
21/09:00am 29.2 - - - - E 9 15 5 8 - - 0.0
21/08:30am 27.6 - - - - ESE 11 15 6 8 - - 0.0
21/08:00am 25.8 - - - - E 11 15 6 8 - - 0.0
21/07:30am 24.2 - - - - ESE 11 17 6 9 - - 0.0
21/07:00am 22.4 - - - - E 9 11 5 6 - - 0.0
21/06:30am 20.7 - - - - ENE 9 11 5 6 - - 0.0
21/06:00am 19.9 - - - - E 9 11 5 6 - - 0.0
21/05:30am 19.7 - - - - E 11 13 6 7 - - 0.0
21/05:00am 19.8 - - - - NE 7 11 4 6 - - 0.0
21/04:30am 19.9 - - - - NE 9 13 5 7 - - 0.0
21/04:00am 20.4 - - - - CALM 0 0 0 0 - - 0.0
21/03:30am 20.6 - - - - ESE 7 9 4 5 - - 0.0

Other Formats:

Comma delimited format used in spreadsheet applications
http://www.bom.gov.au/fwo/IDW60801/IDW60801.95204.axf

JavaScript Object Notation format (JSON) in row-major order
http://www.bom.gov.au/fwo/IDW60801/IDW60801.95204.json